Time;durP1;ratioP1;P1;durP2;ratioP2;P2;SDS_P1;SDS_P2;PMS_P1;PMS_P2;Temp;Humidity;BMP_temperature;BMP_pressure;BME280_temperature;BME280_humidity;BME280_pressure;Samples;Min_cycle;Max_cycle;Signal;HPM_P1;HPM_P2
2022/03/02 00:01:52;;;;;;;33.53;15.20;;;-1.30;54.60;;;;;;4979420;28;20269;-54
2022/03/02 00:04:18;;;;;;;25.50;14.07;;;-1.30;54.60;;;;;;4982878;28;20462;-56
2022/03/02 00:06:43;;;;;;;28.60;15.53;;;-1.40;54.60;;;;;;4979354;28;20510;-55
2022/03/02 00:09:09;;;;;;;29.93;14.50;;;-1.40;54.70;;;;;;4975391;28;20530;-57
2022/03/02 00:11:35;;;;;;;27.70;14.73;;;-1.40;54.80;;;;;;4977298;28;20189;-57
2022/03/02 00:14:02;;;;;;;27.27;13.77;;;-1.50;54.70;;;;;;4975530;28;20200;-55
2022/03/02 00:16:28;;;;;;;31.00;13.63;;;-1.50;54.80;;;;;;4979102;28;20310;-56
2022/03/02 00:18:58;;;;;;;30.40;14.37;;;-1.60;54.90;;;;;;4982514;28;20503;-54
2022/03/02 00:21:24;;;;;;;35.83;14.17;;;-1.60;55.40;;;;;;4986066;28;20917;-57
2022/03/02 00:23:50;;;;;;;31.10;13.77;;;-1.60;55.60;;;;;;4979267;28;20484;-53
2022/03/02 00:26:16;;;;;;;29.83;15.30;;;-1.60;55.70;;;;;;4984086;28;20496;-54
2022/03/02 00:28:42;;;;;;;30.87;13.73;;;-1.60;55.80;;;;;;4976083;28;20509;-56
2022/03/02 00:31:08;;;;;;;31.83;14.13;;;-1.60;55.80;;;;;;4985938;28;20418;-54
2022/03/02 00:33:34;;;;;;;24.00;12.67;;;-1.60;55.70;;;;;;4983380;28;20247;-54
2022/03/02 00:35:59;;;;;;;35.30;13.57;;;-1.70;55.80;;;;;;4978322;28;20465;-54
2022/03/02 00:38:25;;;;;;;22.30;13.13;;;-1.70;55.80;;;;;;4978763;28;20524;-54
2022/03/02 00:40:51;;;;;;;26.20;14.07;;;-1.70;55.80;;;;;;4977888;28;20381;-55
2022/03/02 00:43:17;;;;;;;29.30;13.77;;;-1.70;55.80;;;;;;4982344;28;20821;-55
2022/03/02 00:45:43;;;;;;;30.77;13.23;;;-1.70;55.70;;;;;;4975769;28;20720;-58
2022/03/02 00:48:10;;;;;;;27.97;14.00;;;-1.80;55.90;;;;;;4979926;28;21678;-55
2022/03/02 00:50:36;;;;;;;28.60;14.20;;;-1.80;55.90;;;;;;4985850;28;20606;-55
2022/03/02 00:53:05;;;;;;;22.93;13.50;;;-1.90;56.10;;;;;;4981982;28;20954;-57
2022/03/02 00:55:33;;;;;;;29.70;14.50;;;-1.90;56.20;;;;;;4981140;28;21126;-57
2022/03/02 00:57:59;;;;;;;32.60;14.30;;;-2.00;56.50;;;;;;4981812;28;20799;-54
2022/03/02 01:00:26;;;;;;;29.70;14.73;;;-2.00;56.90;;;;;;4979196;28;20445;-56
2022/03/02 01:02:51;;;;;;;27.80;14.23;;;-1.90;57.10;;;;;;4982789;28;20441;-56
2022/03/02 01:05:17;;;;;;;36.03;15.20;;;-1.90;57.10;;;;;;4983247;28;20512;-55
2022/03/02 01:07:43;;;;;;;32.73;13.70;;;-1.90;57.00;;;;;;4979663;28;20212;-54
2022/03/02 01:10:09;;;;;;;26.93;13.80;;;-1.90;56.80;;;;;;4982135;28;20190;-55
2022/03/02 01:12:35;;;;;;;32.67;15.10;;;-1.90;56.80;;;;;;4978234;28;20433;-57
2022/03/02 01:15:02;;;;;;;26.97;13.73;;;-1.90;56.80;;;;;;4980006;28;20462;-54
2022/03/02 01:17:28;;;;;;;29.07;13.73;;;-2.00;56.90;;;;;;4978622;28;20807;-57
2022/03/02 01:19:53;;;;;;;28.13;13.77;;;-2.00;57.10;;;;;;4979065;28;20410;-56
2022/03/02 01:22:19;;;;;;;26.27;13.47;;;-2.00;57.30;;;;;;4990769;28;20168;-58
2022/03/02 01:24:45;;;;;;;29.47;13.27;;;-2.00;57.30;;;;;;4986585;28;20210;-54
2022/03/02 01:27:11;;;;;;;24.00;12.00;;;-2.00;57.20;;;;;;4991087;28;20194;-55
2022/03/02 01:29:37;;;;;;;26.97;12.53;;;-2.10;57.10;;;;;;4976500;28;20942;-55
2022/03/02 01:32:05;;;;;;;21.37;11.87;;;-2.10;57.10;;;;;;4987387;28;20426;-55
2022/03/02 01:34:31;;;;;;;29.03;12.73;;;-2.10;57.30;;;;;;4985721;28;20648;-54
2022/03/02 01:36:56;;;;;;;23.87;12.23;;;-2.20;57.40;;;;;;4993594;28;20557;-57
2022/03/02 01:39:22;;;;;;;23.13;11.33;;;-2.20;57.60;;;;;;4986252;28;20405;-54
2022/03/02 01:41:48;;;;;;;24.93;11.90;;;-2.20;58.00;;;;;;4984846;28;20176;-55
2022/03/02 01:44:14;;;;;;;26.77;13.43;;;-2.20;58.30;;;;;;4983565;28;20185;-54
2022/03/02 01:46:40;;;;;;;24.63;11.87;;;-2.20;58.30;;;;;;4994097;28;20663;-54
2022/03/02 01:49:06;;;;;;;22.83;13.03;;;-2.20;58.20;;;;;;4990980;28;20182;-55
2022/03/02 01:51:32;;;;;;;22.60;12.27;;;-2.30;58.20;;;;;;4989177;28;20422;-56
2022/03/02 01:53:58;;;;;;;28.20;12.00;;;-2.30;58.30;;;;;;4980448;28;20473;-54
2022/03/02 01:56:24;;;;;;;21.70;12.30;;;-2.30;58.50;;;;;;4977925;28;20491;-57
2022/03/02 01:58:50;;;;;;;22.43;12.10;;;-2.40;58.60;;;;;;4977972;28;20688;-55
2022/03/02 02:01:16;;;;;;;29.10;12.87;;;-2.40;58.80;;;;;;4988737;28;20479;-56
2022/03/02 02:03:42;;;;;;;28.20;12.40;;;-2.50;59.30;;;;;;4985719;28;20428;-57
2022/03/02 02:06:08;;;;;;;25.43;12.07;;;-2.50;59.60;;;;;;4978186;28;20469;-56
2022/03/02 02:08:34;;;;;;;22.80;11.37;;;-2.50;59.90;;;;;;4972145;28;20446;-57
2022/03/02 02:11:01;;;;;;;22.50;11.93;;;-2.50;59.80;;;;;;4990315;28;20536;-56
2022/03/02 02:13:30;;;;;;;23.83;11.80;;;-2.50;59.90;;;;;;4984560;28;20423;-56
2022/03/02 02:15:56;;;;;;;25.53;11.73;;;-2.50;60.10;;;;;;4980299;28;20977;-57
2022/03/02 02:18:22;;;;;;;21.07;10.90;;;-2.50;60.50;;;;;;4985559;28;20524;-57
2022/03/02 02:20:48;;;;;;;24.73;11.90;;;-2.60;60.60;;;;;;4989126;28;20919;-55
2022/03/02 02:23:14;;;;;;;27.03;11.13;;;-2.60;60.80;;;;;;4996230;28;20188;-56
2022/03/02 02:25:39;;;;;;;27.27;12.23;;;-2.60;61.20;;;;;;4991312;28;20298;-55
2022/03/02 02:28:09;;;;;;;26.47;13.10;;;-2.60;61.60;;;;;;4976356;28;20515;-56
2022/03/02 02:30:35;;;;;;;24.70;12.37;;;-2.70;61.30;;;;;;4970885;28;20395;-55
2022/03/02 02:33:00;;;;;;;24.57;12.47;;;-2.70;61.60;;;;;;4978631;28;20820;-55
2022/03/02 02:35:27;;;;;;;26.87;11.70;;;-2.70;61.90;;;;;;4985561;28;20472;-56
2022/03/02 02:37:54;;;;;;;19.70;11.73;;;-2.70;62.30;;;;;;4970199;28;20174;-56
2022/03/02 02:40:21;;;;;;;24.77;11.87;;;-2.80;62.40;;;;;;4983916;28;20883;-54
2022/03/02 02:42:48;;;;;;;20.97;11.20;;;-2.80;62.80;;;;;;4978196;28;20845;-56
2022/03/02 02:45:22;;;;;;;22.63;11.67;;;-2.80;63.10;;;;;;4982093;28;20467;-58
2022/03/02 02:47:55;;;;;;;23.27;10.70;;;-2.80;63.50;;;;;;4985165;28;20432;-56
2022/03/02 02:50:21;;;;;;;25.93;11.10;;;-2.80;63.60;;;;;;4982708;28;20433;-53
2022/03/02 02:52:47;;;;;;;34.90;11.63;;;-2.80;63.50;;;;;;4988850;28;20462;-55
2022/03/02 02:55:15;;;;;;;26.27;11.23;;;-2.80;63.40;;;;;;4988574;28;20218;-57
2022/03/02 02:57:41;;;;;;;23.40;11.90;;;-2.80;63.20;;;;;;4977684;28;20794;-56
2022/03/02 03:00:10;;;;;;;19.63;10.23;;;-2.80;63.20;;;;;;4970190;28;20431;-57
2022/03/02 03:02:37;;;;;;;23.00;11.97;;;-2.80;63.50;;;;;;4981665;28;20472;-56
2022/03/02 03:05:02;;;;;;;24.40;11.83;;;-2.90;63.70;;;;;;4990325;28;20507;-56
2022/03/02 03:07:28;;;;;;;23.80;11.93;;;-2.90;64.20;;;;;;4984902;28;20847;-56
2022/03/02 03:09:54;;;;;;;22.03;11.27;;;-2.90;64.30;;;;;;4974522;28;20489;-58
2022/03/02 03:12:20;;;;;;;24.00;11.97;;;-2.90;64.40;;;;;;4987705;28;20539;-56
2022/03/02 03:14:45;;;;;;;26.63;12.07;;;-3.00;65.10;;;;;;4987876;28;20202;-55
2022/03/02 03:17:11;;;;;;;23.27;12.53;;;-3.00;65.40;;;;;;4978595;28;20290;-57
2022/03/02 03:19:37;;;;;;;28.13;11.87;;;-3.00;65.60;;;;;;4982347;28;20197;-55
2022/03/02 03:22:06;;;;;;;20.77;11.57;;;-3.00;65.80;;;;;;4970179;28;20202;-57
2022/03/02 03:24:34;;;;;;;21.23;11.43;;;-3.00;66.10;;;;;;4983156;28;20706;-56
2022/03/02 03:27:00;;;;;;;27.67;12.27;;;-3.00;66.00;;;;;;4983698;28;20458;-55
2022/03/02 03:29:25;;;;;;;23.73;13.17;;;-3.00;65.50;;;;;;4980317;28;20438;-55
2022/03/02 03:31:51;;;;;;;26.00;11.57;;;-3.00;65.90;;;;;;4987594;28;20417;-56
2022/03/02 03:34:17;;;;;;;20.23;11.43;;;-3.00;66.30;;;;;;4978226;28;20279;-56
2022/03/02 03:36:42;;;;;;;24.73;12.00;;;-3.10;66.50;;;;;;4988453;28;20527;-56
2022/03/02 03:39:09;;;;;;;22.40;12.33;;;-3.10;67.20;;;;;;4987438;28;20217;-56
2022/03/02 03:41:35;;;;;;;25.70;12.67;;;-3.00;66.90;;;;;;4985046;28;20182;-55
2022/03/02 03:44:01;;;;;;;25.77;12.30;;;-3.10;66.90;;;;;;4986972;28;20511;-55
2022/03/02 03:46:27;;;;;;;26.90;12.67;;;-3.10;67.20;;;;;;4988481;28;20394;-55
2022/03/02 03:48:53;;;;;;;26.77;12.83;;;-3.10;67.50;;;;;;4998688;28;20988;-56
2022/03/02 03:51:19;;;;;;;23.03;11.03;;;-3.10;67.50;;;;;;4985725;28;20426;-57
2022/03/02 03:53:45;;;;;;;25.50;12.70;;;-3.10;67.90;;;;;;4981284;28;20183;-55
2022/03/02 03:56:10;;;;;;;26.50;12.77;;;-3.10;68.30;;;;;;4968626;28;20503;-57
2022/03/02 03:58:36;;;;;;;23.23;12.57;;;-3.10;68.10;;;;;;4982033;28;20187;-56
2022/03/02 04:01:03;;;;;;;22.40;11.30;;;-3.10;68.20;;;;;;4974838;28;20273;-56
2022/03/02 04:03:28;;;;;;;20.40;11.40;;;-3.10;68.40;;;;;;4969558;28;20850;-56
2022/03/02 04:05:54;;;;;;;26.43;13.80;;;-3.20;68.00;;;;;;4977593;28;20445;-55
2022/03/02 04:08:22;;;;;;;27.57;12.50;;;-3.20;68.20;;;;;;4983254;28;20187;-56
2022/03/02 04:10:49;;;;;;;20.50;11.67;;;-3.20;68.90;;;;;;4988384;28;20281;-55
2022/03/02 04:13:15;;;;;;;23.97;11.27;;;-3.20;69.20;;;;;;4978555;28;20430;-57
2022/03/02 04:15:40;;;;;;;24.93;11.97;;;-3.30;69.30;;;;;;4981604;28;20469;-55
2022/03/02 04:18:07;;;;;;;22.70;11.30;;;-3.30;70.00;;;;;;4969408;28;20389;-57
2022/03/02 04:20:34;;;;;;;21.17;12.23;;;-3.40;70.50;;;;;;4969792;28;20653;-55
2022/03/02 04:22:59;;;;;;;27.67;13.20;;;-3.40;71.30;;;;;;4991592;28;20777;-57
2022/03/02 04:25:25;;;;;;;25.47;13.77;;;-3.50;71.90;;;;;;5013624;23;20478;-58
2022/03/02 04:27:51;;;;;;;24.27;12.87;;;-3.50;72.40;;;;;;5001947;28;20174;-59
2022/03/02 04:30:16;;;;;;;28.57;12.60;;;-3.50;73.60;;;;;;5007318;28;20502;-59
2022/03/02 04:32:43;;;;;;;22.03;12.37;;;-3.60;74.20;;;;;;4996808;28;20217;-58
2022/03/02 04:35:10;;;;;;;23.23;13.40;;;-3.50;74.00;;;;;;4998846;28;20224;-58
2022/03/02 04:37:37;;;;;;;22.50;11.50;;;-3.50;73.60;;;;;;4991034;28;20487;-59
2022/03/02 04:40:05;;;;;;;26.03;12.00;;;-3.50;73.00;;;;;;4991832;28;20837;-59
2022/03/02 04:42:30;;;;;;;23.43;12.50;;;-3.60;73.00;;;;;;4991612;28;20428;-59
2022/03/02 04:44:56;;;;;;;26.53;11.27;;;-3.60;73.50;;;;;;4990277;28;20487;-59
2022/03/02 04:47:21;;;;;;;24.93;12.70;;;-3.60;73.90;;;;;;4997342;28;20183;-59
2022/03/02 04:49:47;;;;;;;24.97;11.57;;;-3.70;74.60;;;;;;4990287;28;20178;-59
2022/03/02 04:52:13;;;;;;;26.83;11.90;;;-3.70;74.40;;;;;;4992187;28;20179;-58
2022/03/02 04:57:23;;;;;;;24.33;11.83;;;-3.80;75.30;;;;;;4984649;28;20209;-54
2022/03/02 04:59:49;;;;;;;24.20;12.40;;;-3.80;77.80;;;;;;4986265;28;20404;-56
2022/03/02 05:02:14;;;;;;;27.87;11.63;;;-3.80;79.00;;;;;;4979430;28;20219;-59
2022/03/02 05:04:40;;;;;;;24.67;12.97;;;-3.80;78.70;;;;;;4984655;28;20220;-59
2022/03/02 05:07:06;;;;;;;19.67;11.60;;;-3.70;78.30;;;;;;4985665;28;20914;-61
2022/03/02 05:09:31;;;;;;;21.70;12.37;;;-3.70;77.30;;;;;;4979593;28;20467;-60
2022/03/02 05:11:57;;;;;;;26.40;12.47;;;-3.70;76.20;;;;;;4981719;28;20197;-58
2022/03/02 05:14:23;;;;;;;24.50;13.07;;;-3.70;75.90;;;;;;4977805;28;20605;-60
2022/03/02 05:16:48;;;;;;;24.33;11.73;;;-3.70;74.60;;;;;;4986823;28;21087;-58
2022/03/02 05:19:14;;;;;;;25.10;11.90;;;-3.70;74.60;;;;;;4983142;28;20185;-59
2022/03/02 05:21:39;;;;;;;28.33;11.67;;;-3.70;74.70;;;;;;4985911;28;20191;-59
2022/03/02 05:24:06;;;;;;;22.47;11.30;;;-3.80;75.00;;;;;;4983011;28;20204;-58
2022/03/02 05:26:31;;;;;;;29.77;12.70;;;-3.70;75.40;;;;;;4982007;28;20735;-59
2022/03/02 05:28:57;;;;;;;29.50;13.27;;;-3.80;75.50;;;;;;4981560;28;20530;-59
2022/03/02 05:31:24;;;;;;;21.20;11.40;;;-3.80;75.80;;;;;;4985961;28;20415;-59
2022/03/02 05:33:51;;;;;;;27.80;13.60;;;-3.80;75.90;;;;;;4987679;28;20187;-60
2022/03/02 05:36:17;;;;;;;26.30;12.47;;;-3.80;75.80;;;;;;4983634;28;20472;-57
2022/03/02 05:38:43;;;;;;;31.47;12.37;;;-3.80;76.10;;;;;;4977710;28;20405;-60
2022/03/02 05:41:09;;;;;;;28.70;12.73;;;-3.80;76.10;;;;;;4989587;28;20441;-58
2022/03/02 05:43:34;;;;;;;22.67;11.57;;;-3.80;76.00;;;;;;4996210;28;20222;-59
2022/03/02 05:46:00;;;;;;;23.27;11.73;;;-3.90;76.40;;;;;;4991716;28;20207;-59
2022/03/02 05:48:26;;;;;;;29.57;11.70;;;-3.90;77.10;;;;;;4989273;28;20178;-59
2022/03/02 05:50:51;;;;;;;29.70;12.83;;;-4.00;79.10;;;;;;4983233;28;20192;-59
2022/03/02 05:53:17;;;;;;;27.30;12.23;;;-4.00;79.80;;;;;;4987305;28;20214;-58
2022/03/02 05:55:43;;;;;;;24.83;13.00;;;-4.00;80.80;;;;;;4981681;28;20272;-57
2022/03/02 05:58:09;;;;;;;27.30;12.50;;;-4.10;81.30;;;;;;4979068;28;20529;-59
2022/03/02 06:00:34;;;;;;;23.50;12.73;;;-4.10;82.20;;;;;;4979733;28;20193;-59
2022/03/02 06:03:00;;;;;;;29.83;13.30;;;-4.10;83.90;;;;;;4991548;28;20590;-58
2022/03/02 06:05:26;;;;;;;29.63;14.13;;;-4.10;85.00;;;;;;4990441;28;20238;-59
2022/03/02 06:07:51;;;;;;;30.23;13.47;;;-4.10;85.20;;;;;;4990824;28;20269;-57
2022/03/02 06:10:18;;;;;;;29.37;14.10;;;-4.10;84.50;;;;;;4991174;28;20569;-59
2022/03/02 06:12:44;;;;;;;34.70;15.93;;;-4.00;84.70;;;;;;4990057;28;20182;-58
2022/03/02 06:15:12;;;;;;;25.37;12.40;;;-4.00;84.60;;;;;;4986513;28;20445;-59
2022/03/02 06:17:38;;;;;;;25.80;12.83;;;-4.00;85.00;;;;;;4987560;28;20591;-60
2022/03/02 06:20:05;;;;;;;23.10;13.27;;;-4.00;86.50;;;;;;4991168;28;20577;-59
2022/03/02 06:22:31;;;;;;;24.40;13.37;;;-4.00;86.40;;;;;;4992663;28;20484;-59
2022/03/02 06:24:57;;;;;;;27.90;12.17;;;-4.00;87.00;;;;;;4991075;28;20435;-58
2022/03/02 06:27:23;;;;;;;29.53;13.43;;;-3.90;87.70;;;;;;4988524;28;20460;-59
2022/03/02 06:29:49;;;;;;;26.07;13.80;;;-3.90;89.30;;;;;;4991907;28;20437;-59
2022/03/02 06:32:15;;;;;;;32.27;13.90;;;-3.90;89.60;;;;;;4984772;28;20427;-59
2022/03/02 06:34:42;;;;;;;30.20;13.87;;;-3.80;88.90;;;;;;5002953;28;20846;-58
2022/03/02 06:37:08;;;;;;;28.60;13.33;;;-3.80;89.20;;;;;;4986619;28;20888;-59
2022/03/02 06:39:33;;;;;;;29.80;14.40;;;-3.70;89.30;;;;;;4983131;28;20412;-59
2022/03/02 06:42:11;;;;;;;32.03;14.53;;;-3.70;88.60;;;;;;4980407;28;20191;-59
2022/03/02 06:45:00;;;;;;;24.57;13.03;;;-3.60;86.80;;;;;;4979974;28;20245;-59
2022/03/02 06:47:29;;;;;;;30.70;14.60;;;-3.60;85.40;;;;;;4980544;28;20416;-58
2022/03/02 06:50:23;;;;;;;32.90;14.87;;;-3.50;84.90;;;;;;4979536;28;20812;-56
2022/03/02 06:52:54;;;;;;;38.90;14.97;;;-3.50;84.90;;;;;;4972269;28;20449;-58
2022/03/02 06:55:20;;;;;;;27.10;13.60;;;-3.40;85.10;;;;;;4979125;28;20462;-58
2022/03/02 06:57:51;;;;;;;31.60;15.67;;;-3.40;85.70;;;;;;4980377;28;20437;-58
2022/03/02 07:00:17;;;;;;;28.50;13.97;;;-3.30;83.70;;;;;;4982783;28;20679;-58
2022/03/02 07:02:51;;;;;;;23.80;14.03;;;-3.30;81.30;;;;;;4986562;28;20429;-57
2022/03/02 07:05:17;;;;;;;26.20;12.43;;;-3.30;80.60;;;;;;4982806;28;20449;-59
2022/03/02 07:07:44;;;;;;;25.07;13.00;;;-3.20;80.10;;;;;;4983467;28;20441;-60
2022/03/02 07:10:11;;;;;;;25.07;13.93;;;-3.20;81.30;;;;;;4984193;28;20941;-58
2022/03/02 07:12:38;;;;;;;31.37;15.47;;;-3.20;83.50;;;;;;4986462;28;20482;-57
2022/03/02 07:15:04;;;;;;;36.07;14.90;;;-3.10;83.60;;;;;;4986889;28;20456;-58
2022/03/02 07:17:32;;;;;;;33.40;14.73;;;-3.10;83.00;;;;;;4981340;28;20465;-58
2022/03/02 07:19:59;;;;;;;30.00;14.13;;;-3.10;82.20;;;;;;4991244;28;20894;-58
2022/03/02 07:22:30;;;;;;;29.20;13.50;;;-3.10;80.00;;;;;;4985178;28;20921;-58
2022/03/02 07:25:00;;;;;;;26.17;13.03;;;-3.00;81.30;;;;;;4988435;28;20432;-58
2022/03/02 07:27:26;;;;;;;32.30;14.53;;;-3.00;82.30;;;;;;4985185;28;20525;-58
2022/03/02 07:29:54;;;;;;;30.50;15.40;;;-2.90;81.60;;;;;;4981983;28;20891;-58
2022/03/02 07:32:26;;;;;;;31.10;15.40;;;-2.90;79.20;;;;;;4986958;28;20450;-58
2022/03/02 07:34:58;;;;;;;64.47;19.50;;;-2.90;81.10;;;;;;4985358;28;20956;-58
2022/03/02 07:37:26;;;;;;;43.13;19.27;;;-2.80;82.20;;;;;;4987738;28;20453;-57
2022/03/02 07:39:51;;;;;;;49.67;19.53;;;-2.80;82.20;;;;;;4984883;28;20688;-58
2022/03/02 07:42:19;;;;;;;49.57;20.03;;;-2.70;82.30;;;;;;4988741;28;20487;-58
2022/03/02 07:44:49;;;;;;;35.90;17.50;;;-2.60;81.90;;;;;;4970812;28;20266;-57
2022/03/02 07:47:16;;;;;;;35.80;16.50;;;-2.50;79.60;;;;;;4981631;28;20423;-57
2022/03/02 07:49:42;;;;;;;39.83;17.17;;;-2.40;77.20;;;;;;5000418;28;20433;-58
2022/03/02 07:52:09;;;;;;;51.13;20.10;;;-2.40;77.40;;;;;;4990315;28;20416;-59
2022/03/02 07:54:37;;;;;;;46.73;21.80;;;-2.30;77.20;;;;;;4997522;28;20268;-58
2022/03/02 07:57:07;;;;;;;83.33;26.03;;;-2.20;76.90;;;;;;4983034;28;20472;-58
2022/03/02 07:59:36;;;;;;;56.17;24.77;;;-2.10;79.30;;;;;;4988819;28;20442;-59
2022/03/02 08:02:04;;;;;;;52.50;22.20;;;-2.00;77.70;;;;;;4988659;28;20712;-59
2022/03/02 08:04:32;;;;;;;39.90;18.77;;;-2.00;76.00;;;;;;4990482;28;20445;-58
2022/03/02 08:06:57;;;;;;;36.93;16.17;;;-1.90;75.20;;;;;;4989391;28;20977;-58
2022/03/02 08:09:23;;;;;;;27.90;14.20;;;-1.80;75.90;;;;;;4985867;28;20434;-59
2022/03/02 08:11:49;;;;;;;38.03;15.93;;;-1.80;74.70;;;;;;4991375;28;20178;-58
2022/03/02 08:14:18;;;;;;;30.20;14.50;;;-1.70;74.50;;;;;;4975135;28;20187;-61
2022/03/02 08:16:45;;;;;;;24.00;13.27;;;-1.60;75.50;;;;;;4988671;28;20213;-59
2022/03/02 08:19:11;;;;;;;28.30;13.73;;;-1.50;74.80;;;;;;4981663;28;20486;-60
2022/03/02 08:21:44;;;;;;;25.50;12.70;;;-1.50;74.80;;;;;;4978568;28;20444;-58
2022/03/02 08:24:15;;;;;;;26.93;14.33;;;-1.40;73.40;;;;;;4992952;28;20430;-59
2022/03/02 08:26:41;;;;;;;32.10;13.10;;;-1.30;72.80;;;;;;5006882;28;20456;-59
2022/03/02 08:29:10;;;;;;;24.43;13.63;;;-1.10;72.20;;;;;;4985578;28;20937;-59
2022/03/02 08:31:39;;;;;;;24.67;12.77;;;-1.00;71.80;;;;;;4995958;28;20846;-59
2022/03/02 08:34:06;;;;;;;21.27;12.33;;;-0.90;69.80;;;;;;4991588;28;20549;-59
2022/03/02 08:36:36;;;;;;;29.93;13.07;;;-0.80;68.20;;;;;;4986637;28;20580;-59
2022/03/02 08:39:10;;;;;;;25.77;12.00;;;-0.70;68.10;;;;;;4980253;28;20449;-61
2022/03/02 08:41:37;;;;;;;24.90;12.23;;;-0.70;66.70;;;;;;4988679;28;20429;-59
2022/03/02 08:44:03;;;;;;;26.07;12.83;;;-0.60;66.10;;;;;;4990664;28;20417;-59
2022/03/02 08:46:29;;;;;;;22.60;12.53;;;-0.40;65.60;;;;;;4981207;28;20435;-60
2022/03/02 08:48:55;;;;;;;26.43;12.93;;;-0.30;65.60;;;;;;4986239;28;20468;-60
2022/03/02 08:51:22;;;;;;;24.50;12.43;;;-0.20;65.50;;;;;;4986542;28;20654;-60
2022/03/02 08:53:54;;;;;;;27.03;12.67;;;-0.10;65.20;;;;;;4977598;28;21778;-60
2022/03/02 08:56:20;;;;;;;23.93;12.50;;;0.00;64.80;;;;;;4985601;28;20497;-60
2022/03/02 08:58:46;;;;;;;29.53;13.30;;;0.10;64.40;;;;;;4986871;28;20460;-60
2022/03/02 09:01:14;;;;;;;29.80;13.93;;;0.30;64.30;;;;;;4986198;28;20481;-59
2022/03/02 09:03:45;;;;;;;29.90;14.70;;;0.40;63.60;;;;;;4985684;28;20180;-60
2022/03/02 09:06:11;;;;;;;31.87;13.80;;;0.60;63.00;;;;;;4980501;28;20496;-61
2022/03/02 09:08:38;;;;;;;36.40;13.70;;;0.80;62.30;;;;;;4982143;28;21194;-60
2022/03/02 09:11:04;;;;;;;27.37;13.67;;;0.90;61.60;;;;;;4975954;28;20803;-60
2022/03/02 09:13:30;;;;;;;35.93;14.50;;;1.00;61.80;;;;;;4980927;28;20488;-59
2022/03/02 09:15:56;;;;;;;32.60;13.90;;;1.20;61.50;;;;;;4989888;28;20462;-60
2022/03/02 09:18:22;;;;;;;28.50;14.43;;;1.30;60.70;;;;;;4985811;28;20222;-61
2022/03/02 09:20:56;;;;;;;27.43;13.93;;;1.50;60.70;;;;;;4979660;28;20852;-60
2022/03/02 09:23:28;;;;;;;27.00;14.20;;;1.60;60.50;;;;;;4979348;28;20179;-59
2022/03/02 09:25:58;;;;;;;35.10;15.03;;;1.80;60.30;;;;;;4978408;28;20466;-60
2022/03/02 09:28:26;;;;;;;36.43;15.50;;;2.00;59.90;;;;;;4979994;28;20515;-61
2022/03/02 09:30:52;;;;;;;30.93;15.87;;;2.20;59.80;;;;;;4989529;28;20426;-61
2022/03/02 09:33:23;;;;;;;31.80;16.97;;;2.40;59.20;;;;;;4988900;28;20420;-60
2022/03/02 09:35:49;;;;;;;32.57;16.10;;;2.50;58.70;;;;;;4987131;28;20471;-61
2022/03/02 09:38:18;;;;;;;36.80;17.33;;;2.70;57.90;;;;;;4984716;28;20476;-60
2022/03/02 09:40:48;;;;;;;32.80;15.83;;;2.80;57.30;;;;;;4999806;28;20942;-60
2022/03/02 09:43:21;;;;;;;24.97;13.83;;;2.90;56.70;;;;;;4996949;28;20426;-60
2022/03/02 09:45:52;;;;;;;32.17;15.10;;;3.10;55.90;;;;;;4989153;28;20569;-60
2022/03/02 09:48:35;;;;;;;32.20;16.77;;;3.20;55.30;;;;;;5003332;28;20435;-61
2022/03/02 09:51:04;;;;;;;30.40;16.33;;;3.40;54.80;;;;;;5007906;28;20436;-60
2022/03/02 09:53:31;;;;;;;33.47;16.40;;;3.60;54.80;;;;;;5010242;28;20941;-61
2022/03/02 09:56:01;;;;;;;32.70;16.43;;;3.90;54.10;;;;;;4989559;28;20487;-59
2022/03/02 09:58:27;;;;;;;28.73;14.67;;;4.00;52.90;;;;;;4991127;28;20433;-60
2022/03/02 10:00:55;;;;;;;31.70;14.37;;;4.20;52.60;;;;;;4992655;28;20427;-61
2022/03/02 10:03:34;;;;;;;31.07;16.73;;;4.30;52.40;;;;;;4995262;28;20443;-60
2022/03/02 10:06:04;;;;;;;29.13;14.63;;;4.30;52.10;;;;;;4995685;28;20477;-60
2022/03/02 10:08:34;;;;;;;31.03;15.40;;;4.40;51.90;;;;;;4994135;28;20949;-59
2022/03/02 10:11:03;;;;;;;29.40;15.17;;;4.50;51.70;;;;;;4988994;28;20439;-60
2022/03/02 10:13:30;;;;;;;25.10;14.10;;;4.60;51.60;;;;;;4995360;28;20417;-60
2022/03/02 10:15:57;;;;;;;34.77;14.97;;;4.60;50.20;;;;;;4984028;28;20472;-60
2022/03/02 10:18:26;;;;;;;33.97;15.70;;;4.70;50.00;;;;;;4977908;28;20445;-61
2022/03/02 10:21:00;;;;;;;33.07;15.37;;;4.70;50.50;;;;;;4986217;28;20423;-58
2022/03/02 10:23:42;;;;;;;31.17;15.17;;;4.80;50.40;;;;;;4984028;28;20463;-60
2022/03/02 10:26:31;;;;;;;26.97;13.67;;;4.90;50.10;;;;;;5012299;22;20497;-58
2022/03/02 10:29:48;;;;;;;27.13;14.73;;;5.10;50.00;;;;;;4996211;28;20442;-59
2022/03/02 10:32:16;;;;;;;31.87;15.63;;;5.20;49.20;;;;;;4941631;28;21010;-57
2022/03/02 10:34:49;;;;;;;51.40;16.47;;;5.30;48.30;;;;;;5003823;28;20427;-58
2022/03/02 10:37:36;;;;;;;32.10;14.30;;;5.30;48.00;;;;;;4980872;28;20468;-60
2022/03/02 10:40:07;;;;;;;28.27;14.43;;;5.40;47.60;;;;;;4984255;28;20412;-60
2022/03/02 10:42:44;;;;;;;32.10;15.30;;;5.40;47.60;;;;;;5060863;28;20608;-58
2022/03/02 10:45:11;;;;;;;31.30;14.83;;;5.50;47.80;;;;;;5037012;28;20619;-60
2022/03/02 10:47:41;;;;;;;31.20;15.70;;;5.60;47.60;;;;;;5047798;28;20433;-58
2022/03/02 10:50:07;;;;;;;29.13;14.60;;;5.70;47.50;;;;;;5048933;28;20558;-57
2022/03/02 10:52:36;;;;;;;32.57;14.97;;;5.80;47.10;;;;;;5049507;28;20432;-58
2022/03/02 10:55:05;;;;;;;27.23;15.00;;;5.90;46.30;;;;;;5044243;28;20971;-62
2022/03/02 10:57:32;;;;;;;23.87;13.67;;;6.00;46.30;;;;;;5046165;28;20436;-59
2022/03/02 11:00:09;;;;;;;24.60;14.23;;;6.10;46.20;;;;;;5052752;28;20412;-59
2022/03/02 11:02:40;;;;;;;32.40;14.80;;;6.30;46.40;;;;;;5049543;28;20461;-59
2022/03/02 11:05:09;;;;;;;30.40;14.50;;;6.40;45.40;;;;;;5053155;28;20821;-59
2022/03/02 11:07:36;;;;;;;27.03;13.77;;;6.60;45.20;;;;;;5052703;28;20420;-59
2022/03/02 11:10:03;;;;;;;27.17;15.17;;;6.80;44.90;;;;;;5052786;28;20432;-59
2022/03/02 11:12:30;;;;;;;31.97;14.73;;;6.90;44.30;;;;;;5050576;28;20532;-58
2022/03/02 11:15:02;;;;;;;25.03;14.27;;;7.00;44.40;;;;;;5049697;28;20459;-59
2022/03/02 11:17:28;;;;;;;33.67;15.80;;;7.20;44.70;;;;;;5045608;28;20918;-64
2022/03/02 11:19:55;;;;;;;30.97;16.07;;;7.30;44.70;;;;;;5045191;28;20451;-58
2022/03/02 11:22:23;;;;;;;32.40;14.17;;;7.50;44.30;;;;;;5047359;28;20898;-56
2022/03/02 11:24:55;;;;;;;33.33;14.80;;;7.60;43.80;;;;;;5049642;28;20475;-59
2022/03/02 11:27:29;;;;;;;28.10;14.80;;;7.80;43.60;;;;;;5044080;28;20448;-59
2022/03/02 11:30:08;;;;;;;28.57;15.40;;;7.90;43.20;;;;;;5050052;28;20444;-58
2022/03/02 11:32:36;;;;;;;41.53;15.07;;;8.10;42.70;;;;;;5058723;28;20435;-58
2022/03/02 11:35:04;;;;;;;24.60;15.17;;;8.20;42.10;;;;;;5059598;28;20417;-58
2022/03/02 11:37:33;;;;;;;29.43;16.17;;;8.40;42.30;;;;;;5046813;28;20474;-59
2022/03/02 11:40:00;;;;;;;32.10;15.17;;;8.60;42.60;;;;;;5049399;28;20930;-57
2022/03/02 11:42:31;;;;;;;23.47;13.57;;;8.60;41.70;;;;;;5058703;28;20479;-57
2022/03/02 11:44:59;;;;;;;27.27;14.50;;;8.70;41.60;;;;;;5048907;28;20973;-58
2022/03/02 11:47:55;;;;;;;26.47;15.07;;;8.70;41.30;;;;;;5052843;28;20503;-55
2022/03/02 11:50:21;;;;;;;28.00;14.93;;;8.70;40.30;;;;;;5045345;28;20540;-58
2022/03/02 11:52:47;;;;;;;25.40;14.50;;;8.80;40.50;;;;;;5042790;28;21024;-57
2022/03/02 11:55:16;;;;;;;24.80;14.13;;;8.80;39.90;;;;;;5037718;28;20283;-59
2022/03/02 11:57:48;;;;;;;36.33;14.97;;;8.80;39.90;;;;;;5046238;28;20417;-60
2022/03/02 12:00:16;;;;;;;28.60;15.37;;;8.80;40.30;;;;;;5032133;28;20446;-58
2022/03/02 12:02:49;;;;;;;26.60;14.33;;;8.90;40.80;;;;;;5028713;28;20494;-58
2022/03/02 12:05:18;;;;;;;25.87;14.27;;;9.00;40.30;;;;;;5031599;28;20710;-58
2022/03/02 12:07:45;;;;;;;29.63;14.13;;;9.00;39.70;;;;;;5036891;28;20491;-59
2022/03/02 12:10:23;;;;;;;30.23;15.20;;;9.00;39.70;;;;;;5037312;28;20847;-56
2022/03/02 12:12:52;;;;;;;24.90;12.63;;;9.00;39.90;;;;;;5027826;28;20553;-57
2022/03/02 12:15:20;;;;;;;25.03;13.23;;;9.00;39.80;;;;;;5033985;28;20458;-59
2022/03/02 12:17:46;;;;;;;24.97;14.77;;;9.00;40.70;;;;;;5037587;28;20430;-59
2022/03/02 12:20:18;;;;;;;27.50;14.73;;;9.10;40.50;;;;;;5033848;28;20445;-59
2022/03/02 12:22:47;;;;;;;26.00;13.83;;;9.20;40.40;;;;;;5034407;28;20695;-60
2022/03/02 12:25:15;;;;;;;26.17;13.57;;;9.30;40.20;;;;;;5033832;28;20568;-60
2022/03/02 12:27:42;;;;;;;25.97;14.43;;;9.30;40.20;;;;;;5032377;28;20443;-57
2022/03/02 12:30:11;;;;;;;27.13;15.20;;;9.30;39.20;;;;;;5037223;28;20426;-58
2022/03/02 12:32:39;;;;;;;21.13;12.90;;;9.30;39.10;;;;;;5041535;28;20441;-57
2022/03/02 12:35:12;;;;;;;22.80;12.43;;;9.20;38.60;;;;;;5035832;28;20450;-58
2022/03/02 12:37:39;;;;;;;25.20;13.23;;;9.10;38.10;;;;;;5032367;28;20438;-59